createdAt,value
2022-12-15T00:04:32.201Z,-5.41
2022-12-15T00:09:32.285Z,-5.47
2022-12-15T00:14:32.212Z,-5.56
2022-12-15T00:19:32.075Z,-5.59
2022-12-15T00:24:33.013Z,-5.58
2022-12-15T00:29:31.989Z,-5.65
2022-12-15T00:34:31.918Z,-5.76
2022-12-15T00:39:31.813Z,-5.70
2022-12-15T00:44:31.785Z,-5.83
2022-12-15T00:49:31.722Z,-5.79
2022-12-15T00:54:31.642Z,-5.84
2022-12-15T00:59:31.544Z,-5.88
2022-12-15T01:04:31.591Z,-5.95
2022-12-15T01:09:31.501Z,-5.98
2022-12-15T01:14:31.530Z,-5.92
2022-12-15T01:19:31.283Z,-5.92
2022-12-15T01:24:31.347Z,-5.88
2022-12-15T01:29:31.188Z,-5.92
2022-12-15T01:34:31.108Z,-5.95
2022-12-15T01:39:31.045Z,-5.82
2022-12-15T01:44:31.133Z,-5.61
2022-12-15T01:49:31.824Z,-5.37
2022-12-15T01:54:30.880Z,-5.04
2022-12-15T01:59:30.905Z,-4.80
2022-12-15T02:04:30.725Z,-4.40
2022-12-15T02:09:30.671Z,-4.18
2022-12-15T02:14:30.744Z,-3.98
2022-12-15T02:19:30.635Z,-3.84
2022-12-15T02:24:30.487Z,-3.83
2022-12-15T02:29:30.578Z,-3.76
2022-12-15T02:34:30.376Z,-3.68
2022-12-15T02:39:30.273Z,-3.78
2022-12-15T02:44:30.227Z,-3.89
2022-12-15T02:49:30.193Z,-4.12
2022-12-15T02:54:30.143Z,-4.28
2022-12-15T02:59:30.025Z,-4.50
2022-12-15T03:04:30.005Z,-4.58
2022-12-15T03:09:29.921Z,-4.66
2022-12-15T03:14:29.848Z,-4.68
2022-12-15T03:19:29.819Z,-4.62
2022-12-15T03:24:29.698Z,-4.61
2022-12-15T03:29:29.644Z,-4.58
2022-12-15T03:34:29.604Z,-4.54
2022-12-15T03:39:29.534Z,-4.54
2022-12-15T03:44:29.505Z,-4.51
2022-12-15T03:49:29.429Z,-4.46
2022-12-15T03:54:29.371Z,-4.50
2022-12-15T03:59:29.322Z,-4.59
2022-12-15T04:04:29.206Z,-4.73
2022-12-15T04:09:29.140Z,-4.71
2022-12-15T04:14:29.081Z,-4.91
2022-12-15T04:19:29.086Z,-4.82
2022-12-15T04:24:28.994Z,-5.00
2022-12-15T04:29:28.900Z,-5.00
2022-12-15T04:34:28.892Z,-5.12
2022-12-15T04:39:28.786Z,-5.20
2022-12-15T04:44:28.723Z,-5.22
2022-12-15T04:49:28.682Z,-5.20
2022-12-15T04:54:28.628Z,-5.16
2022-12-15T04:59:28.575Z,-5.23
2022-12-15T05:04:28.545Z,-5.31
2022-12-15T05:09:28.465Z,-5.16
2022-12-15T05:14:28.309Z,-5.41
2022-12-15T05:19:28.266Z,-5.43
2022-12-15T05:24:28.191Z,-5.34
2022-12-15T05:29:28.167Z,-5.37
2022-12-15T05:34:28.078Z,-5.59
2022-12-15T05:39:28.041Z,-5.63
2022-12-15T05:44:28.034Z,-5.55
2022-12-15T05:49:27.957Z,-5.54
2022-12-15T05:54:27.842Z,-5.59
2022-12-15T05:59:27.779Z,-5.84
2022-12-15T06:04:27.760Z,-5.98
2022-12-15T06:09:27.666Z,-6.15
2022-12-15T06:14:27.605Z,-6.26
2022-12-15T06:19:27.498Z,-6.12
2022-12-15T06:24:27.531Z,-6.16
2022-12-15T06:29:27.447Z,-6.15
2022-12-15T06:34:27.356Z,-6.11
2022-12-15T06:39:27.266Z,-6.19
2022-12-15T06:44:27.269Z,-6.06
2022-12-15T06:49:27.152Z,-6.21
2022-12-15T06:54:27.118Z,-6.30
2022-12-15T06:59:27.049Z,-6.26
2022-12-15T07:04:27.103Z,-6.26
2022-12-15T07:09:26.903Z,-6.34
2022-12-15T07:14:26.823Z,-6.42
2022-12-15T07:19:26.864Z,-6.37
2022-12-15T07:24:26.715Z,-6.19
2022-12-15T07:29:26.646Z,-6.23
2022-12-15T07:34:26.582Z,-6.13
2022-12-15T07:39:26.632Z,-6.05
2022-12-15T07:44:26.457Z,-5.98
2022-12-15T07:49:26.423Z,-5.77
2022-12-15T07:54:26.408Z,-5.55
2022-12-15T07:59:26.279Z,-5.52
2022-12-15T08:04:26.306Z,-5.47
2022-12-15T08:09:26.172Z,-5.41
2022-12-15T08:14:26.152Z,-5.47
2022-12-15T08:19:26.070Z,-5.44
2022-12-15T08:24:26.068Z,-5.45
2022-12-15T08:29:50.627Z,-5.12
2022-12-15T08:34:26.908Z,-4.83
2022-12-15T08:39:25.766Z,-5.00
2022-12-15T08:44:25.805Z,-5.07
2022-12-15T08:49:25.758Z,-5.30
2022-12-15T08:54:25.580Z,-5.11
2022-12-15T08:59:25.535Z,-4.77
2022-12-15T09:04:25.481Z,-4.57
2022-12-15T09:09:25.422Z,-4.30
2022-12-15T09:14:29.044Z,-4.14
2022-12-15T09:19:25.289Z,-3.98
2022-12-15T09:24:34.387Z,-3.83
2022-12-15T09:29:26.230Z,-3.80
2022-12-15T09:34:25.210Z,-4.01
2022-12-15T09:39:25.006Z,-4.02
2022-12-15T09:44:25.034Z,-3.78
2022-12-15T09:49:24.909Z,-3.72
2022-12-15T09:54:24.933Z,-3.75
2022-12-15T09:59:24.735Z,-3.70
2022-12-15T10:04:24.794Z,-3.76
2022-12-15T10:09:24.645Z,-3.44
2022-12-15T10:14:24.593Z,-3.13
2022-12-15T10:19:24.494Z,-2.78
2022-12-15T10:25:07.301Z,-2.28
2022-12-15T10:29:25.410Z,-2.03
2022-12-15T10:34:24.645Z,-1.81
2022-12-15T10:39:24.338Z,-1.66
2022-12-15T10:44:30.320Z,-1.66
2022-12-15T10:49:25.201Z,-1.60
2022-12-15T10:54:24.037Z,-1.43
2022-12-15T10:59:23.997Z,-1.30
2022-12-15T11:04:23.998Z,-1.18
2022-12-15T11:09:23.889Z,-1.05
2022-12-15T11:14:23.803Z,-0.94
2022-12-15T11:19:23.758Z,-0.92
2022-12-15T11:24:23.756Z,-0.94
2022-12-15T11:29:23.651Z,-0.91
2022-12-15T11:34:23.636Z,-0.81
2022-12-15T11:39:23.523Z,-0.77
2022-12-15T11:44:23.399Z,-0.75
2022-12-15T11:49:23.382Z,-0.73
2022-12-15T11:54:23.356Z,-0.68
2022-12-15T11:59:23.232Z,-0.60
2022-12-15T12:04:23.177Z,-0.57
2022-12-15T12:09:23.127Z,-0.59
2022-12-15T12:14:23.196Z,-0.63
2022-12-15T12:19:23.045Z,-0.78
2022-12-15T12:24:22.938Z,-0.99
2022-12-15T12:29:22.810Z,-1.03
2022-12-15T12:34:22.788Z,-0.92
2022-12-15T12:39:22.737Z,-1.03
2022-12-15T12:44:22.660Z,-1.17
2022-12-15T12:49:26.458Z,-1.03
2022-12-15T12:54:23.451Z,-0.99
2022-12-15T12:59:22.473Z,-0.91
2022-12-15T13:04:22.400Z,-0.84
2022-12-15T13:09:22.387Z,-0.86
2022-12-15T13:14:26.052Z,-0.80
2022-12-15T13:19:22.194Z,-0.73
2022-12-15T13:24:22.138Z,-0.69
2022-12-15T13:29:22.080Z,-0.69
2022-12-15T13:34:22.022Z,-0.89
2022-12-15T13:39:21.971Z,-1.00
2022-12-15T13:44:21.863Z,-0.97
2022-12-15T13:49:21.792Z,-1.06
2022-12-15T13:54:21.810Z,-1.23
2022-12-15T13:59:21.681Z,-1.30
2022-12-15T14:04:21.667Z,-1.20
2022-12-15T14:09:21.553Z,-1.15
2022-12-15T14:14:21.514Z,-1.23
2022-12-15T14:19:21.529Z,-1.45
2022-12-15T14:29:22.348Z,-1.59
2022-12-15T14:34:21.232Z,-1.82
2022-12-15T14:39:21.155Z,-1.95
2022-12-15T14:44:31.505Z,-2.00
2022-12-15T14:49:22.362Z,-2.33
2022-12-15T14:54:20.969Z,-2.39
2022-12-15T14:59:20.921Z,-2.75
2022-12-15T15:03:14.310Z,-1.53
2022-12-15T15:04:20.973Z,-2.69
2022-12-15T15:09:20.839Z,-2.71
2022-12-15T15:14:20.742Z,-2.87
2022-12-15T15:19:20.695Z,-2.86
2022-12-15T15:24:20.626Z,-2.82
2022-12-15T15:29:20.880Z,-2.86
2022-12-15T15:34:20.559Z,-3.07
2022-12-15T15:39:20.410Z,-3.07
2022-12-15T15:44:20.318Z,-3.23
2022-12-15T15:49:20.373Z,-3.57
2022-12-15T15:54:20.213Z,-3.49
2022-12-15T15:59:20.205Z,-3.56
2022-12-15T16:04:20.092Z,-3.67
2022-12-15T16:09:20.019Z,-3.93
2022-12-15T16:14:19.971Z,-3.90
2022-12-15T16:19:19.872Z,-3.93
2022-12-15T16:24:19.903Z,-4.05
2022-12-15T16:29:19.770Z,-4.20
2022-12-15T16:34:19.689Z,-4.11
2022-12-15T16:39:19.631Z,-4.09
2022-12-15T16:44:19.588Z,-4.09
2022-12-15T16:49:19.991Z,-4.15
2022-12-15T16:54:19.450Z,-4.15
2022-12-15T16:59:35.956Z,-4.20
2022-12-15T17:04:20.400Z,-4.26
2022-12-15T17:09:19.265Z,-4.22
2022-12-15T17:14:19.216Z,-4.15
2022-12-15T17:19:21.278Z,-4.32
2022-12-15T17:24:19.165Z,-4.36
2022-12-15T17:29:19.038Z,-2.64
2022-12-15T17:34:19.151Z,-3.60
2022-12-15T17:39:18.866Z,-2.68
2022-12-15T17:44:36.767Z,-2.66
2022-12-15T17:49:19.870Z,-2.93
2022-12-15T17:54:21.462Z,-2.89
2022-12-15T17:59:18.647Z,-2.93
2022-12-15T18:04:18.609Z,-3.18
2022-12-15T18:09:18.544Z,-3.29
2022-12-15T18:14:18.543Z,-3.33
2022-12-15T18:19:18.503Z,-3.46
2022-12-15T18:24:18.300Z,-3.54
2022-12-15T18:29:18.387Z,-3.62
2022-12-15T18:34:18.258Z,-3.64
2022-12-15T18:39:18.314Z,-3.67
2022-12-15T18:44:18.125Z,-3.60
2022-12-15T18:49:17.991Z,-3.46
2022-12-15T18:54:17.991Z,-3.39
2022-12-15T18:59:18.052Z,-3.36
2022-12-15T19:04:17.899Z,-3.39
2022-12-15T19:09:17.776Z,-3.29
2022-12-15T19:14:17.749Z,-3.26
2022-12-15T19:19:17.616Z,-3.14
2022-12-15T19:24:17.554Z,-3.11
2022-12-15T19:29:17.531Z,-3.07
2022-12-15T19:34:17.468Z,-2.96
2022-12-15T19:39:17.440Z,-2.82
2022-12-15T19:44:17.363Z,-2.76
2022-12-15T19:49:17.267Z,-2.50
2022-12-15T19:54:17.187Z,-2.51
2022-12-15T19:59:17.174Z,-2.72
2022-12-15T20:04:18.459Z,-2.86
2022-12-15T20:09:16.977Z,-3.10
2022-12-15T20:14:16.930Z,-3.07
2022-12-15T20:19:16.916Z,-3.15
2022-12-15T20:24:16.918Z,-3.10
2022-12-15T20:29:17.163Z,-3.02
2022-12-15T20:34:16.776Z,-3.15
2022-12-15T20:39:16.563Z,-3.13
2022-12-15T20:44:16.586Z,-3.04
2022-12-15T20:49:16.518Z,-2.97
2022-12-15T20:54:16.536Z,-3.04
2022-12-15T20:59:16.384Z,-3.05
2022-12-15T21:04:16.292Z,-3.10
2022-12-15T21:09:17.038Z,-3.00
2022-12-15T21:14:16.214Z,-2.96
2022-12-15T21:19:20.753Z,-3.00
2022-12-15T21:24:17.032Z,-3.11
2022-12-15T21:29:15.947Z,-2.99
2022-12-15T21:34:16.073Z,-2.92
2022-12-15T21:39:15.815Z,-2.87
2022-12-15T21:44:15.794Z,-2.81
2022-12-15T21:49:15.791Z,-2.53
2022-12-15T21:54:15.641Z,-2.39
2022-12-15T21:59:15.687Z,-2.54
2022-12-15T22:04:15.555Z,-2.68
2022-12-15T22:09:15.495Z,-2.82
2022-12-15T22:14:15.717Z,-2.75
2022-12-15T22:19:15.358Z,-2.42
2022-12-15T22:24:15.293Z,-2.35
2022-12-15T22:29:15.225Z,-2.32
2022-12-15T22:34:15.164Z,-2.43
2022-12-15T22:39:15.235Z,-2.47
2022-12-15T22:44:15.059Z,-2.47
2022-12-15T22:49:14.989Z,-2.51
2022-12-15T22:54:14.839Z,-2.56
2022-12-15T22:59:14.797Z,-2.60
2022-12-15T23:04:14.777Z,-2.58
2022-12-15T23:09:14.728Z,-2.60
2022-12-15T23:14:14.599Z,-2.60
2022-12-15T23:19:14.658Z,-2.60
2022-12-15T23:24:14.452Z,-2.56
2022-12-15T23:29:14.490Z,-2.43
2022-12-15T23:34:14.391Z,-2.43
2022-12-15T23:39:14.265Z,-2.43
2022-12-15T23:44:14.257Z,-2.60
2022-12-15T23:49:14.169Z,-2.54
2022-12-15T23:54:14.071Z,-2.51
2022-12-15T23:59:14.015Z,-2.45
